Time;durP1;ratioP1;P1;durP2;ratioP2;P2;SDS_P1;SDS_P2;PMS_P1;PMS_P2;Temp;Humidity;BMP_temperature;BMP_pressure;BME280_temperature;BME280_humidity;BME280_pressure;Samples;Min_cycle;Max_cycle;Signal;HPM_P1;HPM_P2
2023/05/22 00:00:08;;;;;;;;;;;;;;;21.96;51.47;101294.78;5003848;28;4507;-69
2023/05/22 00:02:41;;;;;;;;;;;;;;;21.96;51.58;101291.91;5005833;28;4919;-69
2023/05/22 00:05:09;;;;;;;;;;;;;;;21.95;51.35;101288.28;4998897;28;4055;-69
2023/05/22 00:07:36;;;;;;;;;;;;;;;21.95;51.52;101284.66;5008861;28;4080;-69
2023/05/22 00:10:02;;;;;;;;;;;;;;;21.95;51.51;101287.53;5006405;28;4046;-69
2023/05/22 00:12:28;;;;;;;;;;;;;;;21.95;51.40;101279.63;5007953;28;4392;-70
2023/05/22 00:14:55;;;;;;;;;;;;;;;21.95;51.64;101284.66;5009565;28;4190;-70
2023/05/22 00:17:22;;;;;;;;;;;;;;;21.94;51.69;101283.16;5005266;28;4009;-70
2023/05/22 00:19:50;;;;;;;;;;;;;;;21.94;51.42;101278.16;5003286;28;4135;-69
2023/05/22 00:22:16;;;;;;;;;;;;;;;21.94;51.50;101275.28;5002008;28;4101;-69
2023/05/22 00:24:43;;;;;;;;;;;;;;;21.95;51.43;101284.66;5007756;28;4056;-70
2023/05/22 00:27:09;;;;;;;;;;;;;;;21.94;51.45;101280.28;5006884;28;4226;-70
2023/05/22 00:29:36;;;;;;;;;;;;;;;21.93;51.55;101276.66;5002327;28;4045;-69
2023/05/22 00:32:02;;;;;;;;;;;;;;;21.94;51.38;101271.63;5006674;28;4059;-70
2023/05/22 00:34:28;;;;;;;;;;;;;;;21.94;51.62;101271.63;5005167;28;4207;-69
2023/05/22 00:36:55;;;;;;;;;;;;;;;21.92;51.37;101274.41;5010026;28;4162;-70
2023/05/22 00:39:21;;;;;;;;;;;;;;;21.93;51.68;101267.25;5010412;28;4089;-70
2023/05/22 00:41:48;;;;;;;;;;;;;;;21.93;51.27;101265.13;5010686;28;4154;-70
2023/05/22 00:44:14;;;;;;;;;;;;;;;21.93;51.40;101267.25;5010614;28;4066;-70
2023/05/22 00:46:41;;;;;;;;;;;;;;;21.92;51.29;101263.66;5008673;28;4062;-70
2023/05/22 00:49:08;;;;;;;;;;;;;;;21.93;51.49;101264.38;5005228;28;5382;-70
2023/05/22 00:51:35;;;;;;;;;;;;;;;21.91;51.60;101262.13;5010105;28;4409;-70
2023/05/22 00:54:01;;;;;;;;;;;;;;;21.92;51.27;101263.66;5007553;28;4128;-69
2023/05/22 00:56:28;;;;;;;;;;;;;;;21.91;51.49;101262.13;4985445;28;4582;-69
2023/05/22 00:58:54;;;;;;;;;;;;;;;21.92;51.60;101266.53;5008008;28;4099;-69
2023/05/22 01:01:22;;;;;;;;;;;;;;;21.91;51.61;101262.13;5002556;28;4358;-69
2023/05/22 01:03:49;;;;;;;;;;;;;;;21.92;51.29;101262.88;5005183;28;4244;-70
2023/05/22 01:06:20;;;;;;;;;;;;;;;21.91;51.64;101261.41;4999747;28;4033;-69
2023/05/22 01:08:46;;;;;;;;;;;;;;;21.91;51.16;101262.13;5016520;28;4171;-70
2023/05/22 01:11:15;;;;;;;;;;;;;;;21.91;51.49;101256.38;5008373;28;4055;-69
2023/05/22 01:13:55;;;;;;;;;;;;;;;21.92;51.48;101260.00;5020331;28;3954;-69
2023/05/22 01:16:43;;;;;;;;;;;;;;;21.91;51.25;101262.13;5007147;28;4224;-69
2023/05/22 01:19:19;;;;;;;;;;;;;;;21.91;51.50;101261.41;5015617;28;5444;-70
2023/05/22 01:22:00;;;;;;;;;;;;;;;21.91;51.56;101258.50;5012042;28;4151;-70
2023/05/22 01:24:31;;;;;;;;;;;;;;;21.91;51.35;101264.28;5005918;28;4521;-69
2023/05/22 01:27:02;;;;;;;;;;;;;;;21.90;51.50;101259.94;4989913;28;4377;-69
2023/05/22 01:29:42;;;;;;;;;;;;;;;21.89;51.54;101261.31;5009074;28;4064;-69
2023/05/22 01:32:09;;;;;;;;;;;;;;;21.90;51.58;101265.69;4984637;28;6177;-69
2023/05/22 01:34:37;;;;;;;;;;;;;;;21.89;51.43;101252.66;5012194;28;4136;-69
2023/05/22 01:37:03;;;;;;;;;;;;;;;21.88;51.46;101254.81;5021083;28;3957;-69
2023/05/22 01:39:30;;;;;;;;;;;;;;;21.89;51.26;101255.53;5010885;28;4133;-69
2023/05/22 01:41:56;;;;;;;;;;;;;;;21.88;51.37;101251.19;5009041;28;4119;-69
2023/05/22 01:44:24;;;;;;;;;;;;;;;21.88;51.20;101251.19;5004835;28;4110;-69
2023/05/22 01:46:50;;;;;;;;;;;;;;;21.88;51.39;101256.94;5003973;28;4411;-70
2023/05/22 01:49:16;;;;;;;;;;;;;;;21.88;51.57;101262.72;4988444;28;4097;-69
2023/05/22 01:51:52;;;;;;;;;;;;;;;21.88;51.32;101251.19;5006433;28;4141;-70
2023/05/22 01:54:23;;;;;;;;;;;;;;;21.87;51.18;101252.56;4993495;28;5330;-70
2023/05/22 01:57:09;;;;;;;;;;;;;;;21.88;51.49;101262.72;5006220;28;4180;-69
2023/05/22 01:59:47;;;;;;;;;;;;;;;21.87;51.33;101255.44;5006121;28;4120;-70
2023/05/22 02:02:17;;;;;;;;;;;;;;;21.87;51.25;101256.19;5010133;28;4184;-69
2023/05/22 02:04:56;;;;;;;;;;;;;;;21.86;51.27;101254.69;5004613;28;4437;-68
2023/05/22 02:07:23;;;;;;;;;;;;;;;21.85;51.46;101258.22;4995688;28;4101;-69
2023/05/22 02:09:50;;;;;;;;;;;;;;;21.85;51.35;101258.22;5006387;28;3931;-69
2023/05/22 02:12:17;;;;;;;;;;;;;;;21.86;51.43;101257.59;5013617;28;4142;-70
2023/05/22 02:14:43;;;;;;;;;;;;;;;21.86;51.18;101253.97;5006847;28;4220;-68
2023/05/22 02:17:10;;;;;;;;;;;;;;;21.86;51.22;101243.16;5012412;28;4055;-69
2023/05/22 02:19:36;;;;;;;;;;;;;;;21.85;51.53;101255.34;5011553;28;4147;-69
2023/05/22 02:22:04;;;;;;;;;;;;;;;21.84;51.38;101248.84;5010965;28;4153;-69
2023/05/22 02:24:35;;;;;;;;;;;;;;;21.86;51.20;101248.19;5015489;28;3925;-69
2023/05/22 02:27:03;;;;;;;;;;;;;;;21.84;51.40;101245.22;5012302;28;4184;-69
2023/05/22 02:29:29;;;;;;;;;;;;;;;21.84;51.30;101248.09;5007891;28;4127;-69
2023/05/22 02:31:55;;;;;;;;;;;;;;;21.85;51.20;101246.69;5009516;28;4176;-72
2023/05/22 02:34:25;;;;;;;;;;;;;;;21.84;51.16;101245.22;4992240;28;4170;-71
2023/05/22 02:36:52;;;;;;;;;;;;;;;21.83;51.36;101255.25;5005532;28;4160;-70
2023/05/22 02:39:18;;;;;;;;;;;;;;;21.83;51.42;101250.25;5013983;28;4181;-71
2023/05/22 02:41:45;;;;;;;;;;;;;;;21.83;51.31;101244.47;5013197;28;4235;-71
2023/05/22 02:44:11;;;;;;;;;;;;;;;21.83;51.47;101243.72;5011266;28;4124;-70
2023/05/22 02:46:38;;;;;;;;;;;;;;;21.82;51.16;101237.22;5002669;28;4316;-71
2023/05/22 02:49:04;;;;;;;;;;;;;;;21.83;51.29;101235.06;4997128;28;4074;-71
2023/05/22 02:51:31;;;;;;;;;;;;;;;21.83;51.31;101227.19;5022615;28;4176;-71
2023/05/22 02:53:57;;;;;;;;;;;;;;;21.83;51.11;101237.94;5001231;28;4142;-71
2023/05/22 02:56:26;;;;;;;;;;;;;;;21.82;51.48;101230.72;5008559;28;4130;-70
2023/05/22 02:58:53;;;;;;;;;;;;;;;21.82;51.36;101233.59;5001436;28;4231;-70
2023/05/22 03:01:20;;;;;;;;;;;;;;;21.81;51.24;101224.22;4998834;28;4240;-70
2023/05/22 03:03:47;;;;;;;;;;;;;;;21.82;51.24;101227.81;5009073;28;4252;-69
2023/05/22 03:06:14;;;;;;;;;;;;;;;21.81;51.11;101221.31;5002576;28;4226;-70
2023/05/22 03:08:42;;;;;;;;;;;;;;;21.82;51.17;101224.94;5005721;28;4058;-69
2023/05/22 03:11:08;;;;;;;;;;;;;;;21.82;51.49;101224.94;5011863;28;5879;-69
2023/05/22 03:13:35;;;;;;;;;;;;;;;21.81;51.34;101220.59;5003018;28;4245;-70
2023/05/22 03:16:01;;;;;;;;;;;;;;;21.81;51.12;101221.31;5012417;28;4195;-69
2023/05/22 03:18:28;;;;;;;;;;;;;;;21.81;51.00;101217.69;5013211;28;4280;-70
2023/05/22 03:20:55;;;;;;;;;;;;;;;21.81;51.23;101211.94;4985036;28;4119;-71
2023/05/22 03:23:21;;;;;;;;;;;;;;;21.80;51.15;101207.53;5013800;28;4143;-71
2023/05/22 03:25:48;;;;;;;;;;;;;;;21.82;51.00;101207.66;5006662;28;4364;-70
2023/05/22 03:28:14;;;;;;;;;;;;;;;21.82;51.18;101214.16;5009857;28;4049;-69
2023/05/22 03:30:41;;;;;;;;;;;;;;;21.82;51.18;101216.28;5007044;28;4311;-71
2023/05/22 03:33:12;;;;;;;;;;;;;;;21.86;51.26;101210.72;5011991;28;4351;-70
2023/05/22 03:35:39;;;;;;;;;;;;;;;21.83;51.11;101217.78;5010331;28;4248;-70
2023/05/22 03:38:05;;;;;;;;;;;;;;;21.82;51.11;101210.53;5007088;28;4128;-70
2023/05/22 03:40:32;;;;;;;;;;;;;;;21.81;51.04;101212.66;5012651;28;4099;-69
2023/05/22 03:42:58;;;;;;;;;;;;;;;21.81;51.16;101206.16;5008927;28;4304;-70
2023/05/22 03:45:25;;;;;;;;;;;;;;;21.81;51.20;101217.69;5013099;28;4057;-70
2023/05/22 03:47:51;;;;;;;;;;;;;;;21.79;50.96;101218.34;5012067;28;4127;-70
2023/05/22 03:50:18;;;;;;;;;;;;;;;21.79;51.04;101226.25;5006807;28;4461;-70
2023/05/22 03:52:44;;;;;;;;;;;;;;;21.78;51.02;101218.97;5007990;28;4050;-69
2023/05/22 03:55:11;;;;;;;;;;;;;;;21.79;51.11;101220.50;5008001;28;4160;-70
2023/05/22 03:57:37;;;;;;;;;;;;;;;21.79;51.03;101208.94;5007507;28;4259;-70
2023/05/22 04:00:08;;;;;;;;;;;;;;;21.78;51.29;101216.09;5011657;28;4143;-70
2023/05/22 04:02:38;;;;;;;;;;;;;;;21.79;51.41;101208.94;5001026;28;3980;-70
2023/05/22 04:05:06;;;;;;;;;;;;;;;21.79;50.96;101209.69;5001344;28;4012;-70
2023/05/22 04:07:32;;;;;;;;;;;;;;;21.78;51.03;101213.22;5009655;28;4127;-70
2023/05/22 04:09:58;;;;;;;;;;;;;;;21.78;51.28;101208.19;5005728;28;4287;-70
2023/05/22 04:12:25;;;;;;;;;;;;;;;21.77;50.95;101211.75;5013304;28;4297;-70
2023/05/22 04:14:51;;;;;;;;;;;;;;;21.79;51.13;101211.84;5000622;28;4342;-70
2023/05/22 04:17:18;;;;;;;;;;;;;;;21.78;50.89;101213.22;5012013;28;4234;-72
2023/05/22 04:19:45;;;;;;;;;;;;;;;21.77;51.24;101218.25;5007827;28;4531;-76
2023/05/22 04:22:11;;;;;;;;;;;;;;;21.77;51.24;101214.63;5015474;28;3922;-76
2023/05/22 04:24:38;;;;;;;;;;;;;;;21.79;51.01;101226.25;5003649;28;3958;-76
2023/05/22 04:27:05;;;;;;;;;;;;;;;21.77;51.00;101215.38;5003201;28;4136;-76
2023/05/22 04:29:35;;;;;;;;;;;;;;;21.78;51.21;101207.44;4987551;28;4170;-76
2023/05/22 04:32:01;;;;;;;;;;;;;;;21.78;51.23;101224.75;5000545;28;4292;-77
2023/05/22 04:34:29;;;;;;;;;;;;;;;21.77;51.03;101218.25;5009425;28;4100;-77
2023/05/22 04:36:55;;;;;;;;;;;;;;;21.77;50.84;101215.38;5009764;28;4142;-76
2023/05/22 04:39:25;;;;;;;;;;;;;;;21.77;50.94;101220.38;5011242;28;4087;-76
2023/05/22 04:41:51;;;;;;;;;;;;;;;21.77;51.08;101224.00;5016925;28;4033;-76
2023/05/22 04:44:21;;;;;;;;;;;;;;;21.77;50.99;101220.38;5005929;28;3946;-76
2023/05/22 04:46:50;;;;;;;;;;;;;;;21.77;51.17;101215.38;5014863;28;4171;-76
2023/05/22 04:49:16;;;;;;;;;;;;;;;21.78;51.09;101224.75;5008712;28;4127;-77
2023/05/22 04:51:43;;;;;;;;;;;;;;;21.78;51.17;101213.22;5012663;28;4067;-76
2023/05/22 04:54:09;;;;;;;;;;;;;;;21.77;51.17;101211.75;5013736;28;4210;-76
2023/05/22 04:56:35;;;;;;;;;;;;;;;21.77;51.12;101217.50;5011534;28;3919;-76
2023/05/22 04:59:04;;;;;;;;;;;;;;;21.77;51.18;101214.63;5013166;28;4087;-76
2023/05/22 05:01:31;;;;;;;;;;;;;;;21.77;50.93;101211.75;5007177;28;3995;-75
2023/05/22 05:03:58;;;;;;;;;;;;;;;21.80;51.16;101210.44;5004329;28;4076;-75
2023/05/22 05:06:26;;;;;;;;;;;;;;;21.79;51.09;101200.31;5014842;28;4141;-75
2023/05/22 05:08:52;;;;;;;;;;;;;;;21.79;51.02;101203.19;5016903;28;4224;-73
2023/05/22 05:11:20;;;;;;;;;;;;;;;21.78;51.18;101201.69;5023755;28;4142;-76
2023/05/22 05:13:46;;;;;;;;;;;;;;;21.78;51.18;101207.44;5013031;28;4084;-74
2023/05/22 05:16:13;;;;;;;;;;;;;;;21.77;51.06;101205.97;5004029;28;4140;-74
2023/05/22 05:18:39;;;;;;;;;;;;;;;21.78;51.03;101207.44;5005443;28;4136;-74
2023/05/22 05:21:06;;;;;;;;;;;;;;;21.78;51.14;101201.69;5002587;28;4175;-76
2023/05/22 05:23:33;;;;;;;;;;;;;;;21.78;51.18;101202.44;5005533;28;4236;-77
2023/05/22 05:25:59;;;;;;;;;;;;;;;21.78;51.21;101201.69;5009608;28;4078;-75
2023/05/22 05:28:26;;;;;;;;;;;;;;;21.79;51.15;101214.72;5015232;28;3972;-74
2023/05/22 05:30:53;;;;;;;;;;;;;;;21.79;51.02;101208.94;5002692;28;4119;-77
2023/05/22 05:33:38;;;;;;;;;;;;;;;21.75;50.97;101212.38;5007304;28;4021;-68
2023/05/22 05:36:11;;;;;;;;;;;;;;;21.67;51.04;101212.00;5007962;28;4073;-71
2023/05/22 05:38:38;;;;;;;;;;;;;;;21.48;50.03;101213.28;5009635;28;4169;-69
2023/05/22 05:41:05;;;;;;;;;;;;;;;21.38;49.58;101221.44;5013357;28;4206;-69
2023/05/22 05:43:32;;;;;;;;;;;;;;;21.38;49.04;101219.28;5028980;28;4207;-69
2023/05/22 05:46:03;;;;;;;;;;;;;;;21.38;48.56;101222.16;5008930;28;4002;-68
2023/05/22 05:48:29;;;;;;;;;;;;;;;21.39;48.12;101222.91;4986051;28;4164;-70
2023/05/22 05:50:56;;;;;;;;;;;;;;;21.41;47.79;101220.88;5014242;28;4193;-70
2023/05/22 05:53:24;;;;;;;;;;;;;;;21.43;47.80;101226.00;5003862;28;4056;-69
2023/05/22 05:55:56;;;;;;;;;;;;;;;21.44;47.69;101221.72;5006181;28;4469;-70
2023/05/22 05:58:22;;;;;;;;;;;;;;;21.45;47.67;101220.34;5005511;28;4096;-71
2023/05/22 06:01:03;;;;;;;;;;;;;;;21.44;47.46;101221.72;5008787;28;4502;-71
2023/05/22 06:03:30;;;;;;;;;;;;;;;21.48;47.29;101221.94;5011245;28;4066;-72
2023/05/22 06:06:19;;;;;;;;;;;;;;;21.52;47.18;101216.34;5009690;28;4151;-73
2023/05/22 06:09:05;;;;;;;;;;;;;;;21.57;47.01;101217.28;5011549;28;4210;-72
2023/05/22 06:11:35;;;;;;;;;;;;;;;21.59;47.30;101215.25;4992366;28;4151;-72
2023/05/22 06:14:02;;;;;;;;;;;;;;;21.59;47.32;101209.50;5002676;28;4084;-72
2023/05/22 06:16:30;;;;;;;;;;;;;;;21.61;47.29;101205.97;5005180;28;4266;-72
2023/05/22 06:18:57;;;;;;;;;;;;;;;21.62;47.36;101201.69;5022591;28;4272;-72
2023/05/22 06:21:24;;;;;;;;;;;;;;;21.63;47.73;101209.69;5005458;28;4632;-72
2023/05/22 06:23:51;;;;;;;;;;;;;;;21.62;47.72;101207.44;5011598;28;3954;-72
2023/05/22 06:26:18;;;;;;;;;;;;;;;21.64;48.01;101207.53;5022188;28;4223;-72
2023/05/22 06:28:45;;;;;;;;;;;;;;;21.63;48.29;101203.91;4996557;28;4120;-71
2023/05/22 06:31:11;;;;;;;;;;;;;;;21.60;48.77;101205.22;5025291;28;4282;-72
2023/05/22 06:33:42;;;;;;;;;;;;;;;21.46;48.23;101210.31;5000372;28;4012;-72
2023/05/22 06:36:10;;;;;;;;;;;;;;;21.31;47.98;101203.09;5014259;28;5458;-71
2023/05/22 06:38:39;;;;;;;;;;;;;;;21.26;47.71;101212.94;5003999;28;4101;-72
2023/05/22 06:41:15;;;;;;;;;;;;;;;21.21;47.84;101211.25;5015325;28;4226;-72
2023/05/22 06:43:41;;;;;;;;;;;;;;;21.21;47.88;101212.00;5004578;28;4148;-73
2023/05/22 06:46:11;;;;;;;;;;;;;;;21.24;48.02;101204.94;5012097;28;5364;-74
2023/05/22 06:48:49;;;;;;;;;;;;;;;21.39;47.64;101208.50;5011415;28;4143;-70
2023/05/22 06:51:23;;;;;;;;;;;;;;;21.86;48.00;101207.84;5010191;28;4082;-67
2023/05/22 06:53:52;;;;;;;;;;;;;;;22.05;47.67;101215.16;5011495;28;4046;-67
2023/05/22 06:56:23;;;;;;;;;;;;;;;22.20;47.15;101210.78;5009871;28;5045;-67
2023/05/22 06:58:52;;;;;;;;;;;;;;;22.30;46.82;101208.38;5004766;28;3985;-68
2023/05/22 07:01:22;;;;;;;;;;;;;;;22.28;46.70;101211.16;5014145;28;4884;-70
2023/05/22 07:04:00;;;;;;;;;;;;;;;22.30;46.53;101214.16;5018765;28;4485;-71
2023/05/22 07:06:37;;;;;;;;;;;;;;;22.42;46.29;101211.78;5016513;28;4091;-70
2023/05/22 07:09:05;;;;;;;;;;;;;;;21.90;46.89;101208.03;5025292;28;4001;-67
2023/05/22 07:11:31;;;;;;;;;;;;;;;22.11;47.00;101207.53;5016929;28;4120;-69
2023/05/22 07:13:58;;;;;;;;;;;;;;;22.30;46.75;101205.50;5015557;28;4083;-69
2023/05/22 07:16:24;;;;;;;;;;;;;;;22.33;46.49;101215.72;5009395;28;4089;-71
2023/05/22 07:18:51;;;;;;;;;;;;;;;22.24;46.64;101216.75;5000285;28;4168;-68
2023/05/22 07:21:18;;;;;;;;;;;;;;;22.23;46.59;101216.00;5010721;28;4205;-70
2023/05/22 07:23:45;;;;;;;;;;;;;;;22.24;46.57;101210.97;5024564;28;4291;-71
2023/05/22 07:26:11;;;;;;;;;;;;;;;22.29;46.51;101215.56;5009406;28;4374;-74
2023/05/22 07:28:45;;;;;;;;;;;;;;;22.24;46.51;101203.09;5018580;28;4083;-74
2023/05/22 07:31:13;;;;;;;;;;;;;;;22.22;46.47;101202.22;4997982;28;4144;-75
2023/05/22 07:33:39;;;;;;;;;;;;;;;22.27;46.32;101206.81;5017803;28;4368;-74
2023/05/22 07:36:06;;;;;;;;;;;;;;;22.45;46.42;101201.84;5008221;28;4206;-67
2023/05/22 07:38:34;;;;;;;;;;;;;;;22.47;46.46;101199.03;5029271;28;4334;-69
2023/05/22 07:41:03;;;;;;;;;;;;;;;22.51;46.07;101198.44;5011068;28;4329;-65
2023/05/22 07:43:31;;;;;;;;;;;;;;;22.63;46.00;101192.44;5012456;28;4247;-64
2023/05/22 07:45:58;;;;;;;;;;;;;;;22.68;46.01;101200.63;5006601;28;4345;-65
2023/05/22 07:48:29;;;;;;;;;;;;;;;22.61;46.38;101206.78;5002911;28;4290;-68
2023/05/22 07:50:56;;;;;;;;;;;;;;;22.73;46.11;101192.88;5006100;28;4219;-68
2023/05/22 07:53:22;;;;;;;;;;;;;;;22.73;46.03;101195.78;5011183;28;4116;-66
2023/05/22 07:55:51;;;;;;;;;;;;;;;22.76;46.36;101203.13;5005432;28;4174;-64
2023/05/22 07:58:18;;;;;;;;;;;;;;;22.78;46.05;101197.44;5008391;28;4177;-63
2023/05/22 08:00:46;;;;;;;;;;;;;;;22.88;46.30;101194.94;5012930;28;4074;-66
2023/05/22 08:03:12;;;;;;;;;;;;;;;22.96;45.88;101198.19;5014403;28;4041;-65
2023/05/22 08:05:39;;;;;;;;;;;;;;;23.09;45.80;101202.34;5009818;28;4137;-67
2023/05/22 08:08:05;;;;;;;;;;;;;;;23.07;45.72;101204.41;5004248;28;5172;-67
2023/05/22 08:10:32;;;;;;;;;;;;;;;22.83;46.69;101198.34;5008544;28;4176;-72
2023/05/22 08:13:12;;;;;;;;;;;;;;;22.85;46.60;101202.06;5013162;28;3885;-76
2023/05/22 08:15:39;;;;;;;;;;;;;;;22.79;47.03;101193.13;5010015;28;4564;-73
2023/05/22 08:18:05;;;;;;;;;;;;;;;22.79;46.78;101199.66;5010709;28;4135;-73
2023/05/22 08:20:32;;;;;;;;;;;;;;;22.80;46.96;101198.25;5007285;28;4163;-71
2023/05/22 08:22:59;;;;;;;;;;;;;;;22.83;46.99;101186.78;5009031;28;4096;-73
2023/05/22 08:25:25;;;;;;;;;;;;;;;22.82;46.79;101186.06;5004543;28;4083;-72
2023/05/22 08:27:51;;;;;;;;;;;;;;;22.77;46.59;101190.19;5016092;28;4164;-71
2023/05/22 08:30:18;;;;;;;;;;;;;;;22.79;46.58;101176.56;5009420;28;4022;-76
2023/05/22 08:32:44;;;;;;;;;;;;;;;22.84;46.62;101189.03;5011161;28;4072;-65
2023/05/22 08:35:11;;;;;;;;;;;;;;;22.85;46.48;101181.84;5003237;28;4174;-68
2023/05/22 08:37:37;;;;;;;;;;;;;;;23.04;46.20;101179.72;5006865;28;4171;-67
2023/05/22 08:40:04;;;;;;;;;;;;;;;23.07;46.22;101181.31;5005298;28;4964;-69
2023/05/22 08:42:30;;;;;;;;;;;;;;;23.29;45.92;101178.56;5007382;28;4042;-69
2023/05/22 08:44:59;;;;;;;;;;;;;;;23.14;46.10;101174.38;5010331;28;4080;-69
2023/05/22 08:47:27;;;;;;;;;;;;;;;22.96;45.94;101177.97;5006626;28;4280;-69
2023/05/22 08:49:53;;;;;;;;;;;;;;;22.77;46.70;101164.94;4999475;28;4189;-69
2023/05/22 08:52:25;;;;;;;;;;;;;;;22.83;46.90;101170.19;5000777;28;4250;-67
2023/05/22 08:54:52;;;;;;;;;;;;;;;23.04;46.39;101165.28;5010342;28;4226;-69
2023/05/22 08:57:18;;;;;;;;;;;;;;;23.22;46.50;101168.91;5011731;28;4170;-69
2023/05/22 08:59:45;;;;;;;;;;;;;;;22.97;46.99;101162.09;5009728;28;4129;-69
2023/05/22 09:02:11;;;;;;;;;;;;;;;22.73;46.94;101161.88;4984525;28;4260;-67
2023/05/22 09:04:39;;;;;;;;;;;;;;;22.89;46.81;101161.81;5002291;28;4141;-67
2023/05/22 09:07:07;;;;;;;;;;;;;;;22.95;46.49;101159.16;5000384;28;4145;-66
2023/05/22 09:09:37;;;;;;;;;;;;;;;23.23;46.73;101158.06;5010584;28;4406;-68
2023/05/22 09:12:10;;;;;;;;;;;;;;;23.25;46.12;101161.81;5002519;28;4421;-72
2023/05/22 09:14:37;;;;;;;;;;;;;;;23.23;46.54;101150.16;5009874;28;4208;-67
2023/05/22 09:17:04;;;;;;;;;;;;;;;23.21;46.45;101150.09;5002427;28;4394;-67
2023/05/22 09:19:30;;;;;;;;;;;;;;;23.27;46.60;101156.09;5007558;28;4150;-72
2023/05/22 09:22:03;;;;;;;;;;;;;;;23.30;46.41;101148.25;4998318;28;4614;-69
2023/05/22 09:24:29;;;;;;;;;;;;;;;23.07;45.95;101146.66;5017579;28;4218;-71
2023/05/22 09:26:56;;;;;;;;;;;;;;;23.29;45.88;101144.59;5015544;28;3980;-69
2023/05/22 09:29:22;;;;;;;;;;;;;;;23.25;46.22;101149.50;5023306;28;4409;-71
2023/05/22 09:31:49;;;;;;;;;;;;;;;23.17;45.13;101149.91;5020798;28;4179;-76
2023/05/22 09:34:16;;;;;;;;;;;;;;;23.20;45.36;101148.59;5024815;28;4018;-75
2023/05/22 09:36:42;;;;;;;;;;;;;;;23.21;45.42;101138.53;5021033;28;4153;-75
2023/05/22 09:39:09;;;;;;;;;;;;;;;23.36;45.25;101143.44;5021696;28;4152;-69
2023/05/22 09:41:36;;;;;;;;;;;;;;;23.54;45.20;101134.00;5020125;28;4188;-68
2023/05/22 09:44:13;;;;;;;;;;;;;;;23.34;44.79;101140.50;5003792;28;5116;-66
2023/05/22 09:46:40;;;;;;;;;;;;;;;23.37;45.23;101127.59;5006273;28;4189;-66
2023/05/22 09:49:07;;;;;;;;;;;;;;;23.34;45.19;101126.03;5004988;28;4148;-71
2023/05/22 09:51:34;;;;;;;;;;;;;;;23.33;44.98;101133.22;5009068;28;4081;-68
2023/05/22 09:54:02;;;;;;;;;;;;;;;23.34;45.09;101128.94;5005700;28;4069;-70
2023/05/22 09:56:29;;;;;;;;;;;;;;;23.31;45.01;101136.03;5005272;28;3993;-69
2023/05/22 09:59:04;;;;;;;;;;;;;;;23.28;44.57;101122.91;5005055;28;4205;-70
2023/05/22 10:01:32;;;;;;;;;;;;;;;23.38;45.09;101129.06;5007373;28;4061;-64
2023/05/22 10:03:59;;;;;;;;;;;;;;;23.43;45.21;101124.19;5007253;28;5364;-67
2023/05/22 10:06:26;;;;;;;;;;;;;;;23.51;45.07;101126.66;5006467;28;4703;-66
2023/05/22 10:08:53;;;;;;;;;;;;;;;23.57;45.00;101124.75;5005755;28;4415;-67
2023/05/22 10:11:20;;;;;;;;;;;;;;;23.60;45.23;101125.56;5004099;28;4103;-67
2023/05/22 10:13:46;;;;;;;;;;;;;;;23.61;44.89;101127.03;5006076;28;4043;-66
2023/05/22 10:16:14;;;;;;;;;;;;;;;23.58;44.99;101117.53;5003708;28;4248;-68
2023/05/22 10:18:40;;;;;;;;;;;;;;;23.65;45.14;101118.50;5005713;28;4175;-71
2023/05/22 10:21:07;;;;;;;;;;;;;;;23.60;44.67;101122.66;5003605;28;6453;-75
2023/05/22 10:23:33;;;;;;;;;;;;;;;23.64;44.93;101125.72;5010371;28;4079;-75
2023/05/22 10:26:00;;;;;;;;;;;;;;;23.68;45.11;101114.28;5009944;28;4610;-83
2023/05/22 10:28:27;;;;;;;;;;;;;;;23.69;44.76;101107.09;5012373;28;4113;-79
2023/05/22 10:31:01;;;;;;;;;;;;;;;23.60;44.02;101108.22;5008118;28;4519;-78
2023/05/22 10:33:47;;;;;;;;;;;;;;;23.71;44.66;101107.19;5007647;28;4186;-77
2023/05/22 10:36:23;;;;;;;;;;;;;;;23.76;44.60;101108.81;5012489;28;3905;-85
2023/05/22 10:38:56;;;;;;;;;;;;;;;23.75;43.92;101109.47;5011676;28;4060;-74
2023/05/22 10:41:22;;;;;;;;;;;;;;;23.78;44.18;101108.91;5006021;28;4734;-74
2023/05/22 10:43:49;;;;;;;;;;;;;;;23.82;44.41;101100.38;5008823;28;4174;-75
2023/05/22 10:46:15;;;;;;;;;;;;;;;23.75;45.02;101089.25;5005386;28;4020;-77
2023/05/22 10:48:46;;;;;;;;;;;;;;;23.89;44.64;101086.13;5013583;28;4127;-69
2023/05/22 10:51:13;;;;;;;;;;;;;;;23.84;44.74;101085.22;5020773;28;4025;-74
2023/05/22 10:53:39;;;;;;;;;;;;;;;23.89;44.55;101075.31;5018276;28;4061;-79
2023/05/22 10:56:09;;;;;;;;;;;;;;;23.51;43.81;101077.53;5003137;28;4138;-74
2023/05/22 10:58:36;;;;;;;;;;;;;;;23.33;44.66;101074.69;5003967;28;4489;-76
2023/05/22 11:01:16;;;;;;;;;;;;;;;23.37;45.03;101069.81;5016627;28;4174;-79
2023/05/22 11:03:58;;;;;;;;;;;;;;;23.37;45.81;101074.84;5037336;28;4248;-76
2023/05/22 11:06:44;;;;;;;;;;;;;;;23.41;45.83;101075.75;5013681;28;4125;-74
2023/05/22 11:09:29;;;;;;;;;;;;;;;23.35;45.93;101066.84;5015413;28;4065;-82
2023/05/22 11:12:18;;;;;;;;;;;;;;;23.31;46.28;101060.91;5017169;28;5038;-79
2023/05/22 11:14:48;;;;;;;;;;;;;;;23.37;46.09;101063.28;5020180;28;4074;-72
2023/05/22 11:17:19;;;;;;;;;;;;;;;23.61;45.83;101066.31;5021359;28;4129;-75
2023/05/22 11:20:05;;;;;;;;;;;;;;;23.62;45.76;101065.66;5022109;28;4185;-74
2023/05/22 11:22:33;;;;;;;;;;;;;;;23.68;45.66;101062.22;5029321;28;4207;-73
2023/05/22 11:24:59;;;;;;;;;;;;;;;23.72;45.59;101065.28;5019958;28;4129;-78
2023/05/22 11:27:26;;;;;;;;;;;;;;;23.76;45.89;101056.78;5017618;28;4150;-71
2023/05/22 11:29:52;;;;;;;;;;;;;;;23.83;45.57;101052.69;5024240;28;4083;-71
2023/05/22 11:32:21;;;;;;;;;;;;;;;23.88;45.70;101052.84;5023543;28;4195;-71
2023/05/22 11:34:49;;;;;;;;;;;;;;;23.75;45.57;101055.28;5020377;28;4533;-73
2023/05/22 11:37:19;;;;;;;;;;;;;;;23.71;45.75;101052.25;5016860;28;4192;-73
2023/05/22 11:39:54;;;;;;;;;;;;;;;23.74;46.22;101053.81;5019552;28;4145;-71
2023/05/22 11:42:21;;;;;;;;;;;;;;;23.76;45.89;101051.00;5020791;28;3963;-76
2023/05/22 11:44:47;;;;;;;;;;;;;;;23.72;46.11;101050.81;5016707;28;5087;-73
2023/05/22 11:47:14;;;;;;;;;;;;;;;23.45;46.46;101042.59;5020684;28;4056;-70
2023/05/22 11:49:41;;;;;;;;;;;;;;;23.39;46.79;101049.66;5008253;28;3988;-76
2023/05/22 11:52:08;;;;;;;;;;;;;;;23.48;46.90;101044.16;5007506;28;4139;-77
2023/05/22 11:54:34;;;;;;;;;;;;;;;23.52;46.87;101045.03;5016698;28;4097;-73
2023/05/22 11:57:06;;;;;;;;;;;;;;;23.65;46.66;101040.44;5015831;28;4453;-80
2023/05/22 11:59:33;;;;;;;;;;;;;;;23.68;46.64;101033.31;5021252;28;4154;-81
2023/05/22 12:01:59;;;;;;;;;;;;;;;23.77;46.46;101040.91;5024926;28;4046;-74
2023/05/22 12:04:26;;;;;;;;;;;;;;;23.78;46.95;101041.66;5015150;28;4211;-81
2023/05/22 12:06:52;;;;;;;;;;;;;;;23.57;46.42;101032.25;5008418;28;4149;-73
2023/05/22 12:09:19;;;;;;;;;;;;;;;23.66;46.53;101030.34;5015118;28;4128;-75
2023/05/22 12:11:45;;;;;;;;;;;;;;;23.80;46.26;101024.34;5021290;28;4194;-75
2023/05/22 12:14:12;;;;;;;;;;;;;;;23.90;46.53;101029.78;5016573;28;4114;-76
2023/05/22 12:16:38;;;;;;;;;;;;;;;23.85;46.14;101026.00;5012459;28;4003;-77
2023/05/22 12:19:08;;;;;;;;;;;;;;;23.87;46.43;101013.75;5013529;28;4024;-74
2023/05/22 12:21:35;;;;;;;;;;;;;;;23.88;46.49;101015.97;5008995;28;4197;-79
2023/05/22 12:24:02;;;;;;;;;;;;;;;23.91;46.46;101019.69;5011149;28;4095;-86
2023/05/22 12:26:28;;;;;;;;;;;;;;;23.92;46.86;101021.91;5004710;28;4033;-78
2023/05/22 12:28:55;;;;;;;;;;;;;;;23.92;46.46;101010.34;5008379;28;4113;-79
2023/05/22 12:31:21;;;;;;;;;;;;;;;23.98;46.54;101015.56;5010867;28;4553;-78
2023/05/22 12:33:48;;;;;;;;;;;;;;;23.97;46.57;101002.53;5008532;28;3983;-77
2023/05/22 12:36:14;;;;;;;;;;;;;;;23.98;46.28;101025.00;5009928;28;4107;-75
2023/05/22 12:38:41;;;;;;;;;;;;;;;24.00;46.59;101010.59;5019311;28;5467;-73
2023/05/22 12:41:07;;;;;;;;;;;;;;;24.01;46.77;101022.94;5015840;28;4004;-74
2023/05/22 12:43:33;;;;;;;;;;;;;;;24.05;46.86;101005.69;5012626;28;4058;-74
2023/05/22 12:46:00;;;;;;;;;;;;;;;24.15;46.63;101003.16;5016167;28;3972;-73
2023/05/22 12:48:28;;;;;;;;;;;;;;;24.19;46.63;101006.19;5017448;28;4167;-72
2023/05/22 12:50:54;;;;;;;;;;;;;;;24.20;46.53;101004.75;5016630;28;4035;-73
2023/05/22 12:53:21;;;;;;;;;;;;;;;23.98;46.56;101001.88;5017498;28;4231;-75